Time;durP1;ratioP1;P1;durP2;ratioP2;P2;SDS_P1;SDS_P2;PMS_P1;PMS_P2;Temp;Humidity;BMP_temperature;BMP_pressure;BME280_temperature;BME280_humidity;BME280_pressure;Samples;Min_cycle;Max_cycle;Signal;HPM_P1;HPM_P2
2021/03/26 00:01:57;;;;;;;49.93;27.32;;;;;;;1.33;53.33;100419.11;1804946;78;20977;-76
2021/03/26 00:04:26;;;;;;;52.35;27.80;;;;;;;1.27;53.48;100414.05;1811319;78;21194;-75
2021/03/26 00:06:54;;;;;;;44.15;24.90;;;;;;;1.22;53.70;100413.25;1804005;78;20942;-75
2021/03/26 00:09:26;;;;;;;41.00;23.32;;;;;;;1.18;53.79;100413.75;1809952;78;20907;-75
2021/03/26 00:11:59;;;;;;;36.40;21.42;;;;;;;1.16;53.99;100412.92;1731239;80;21384;-75
2021/03/26 00:14:28;;;;;;;31.85;19.17;;;;;;;1.13;54.06;100406.54;1739679;80;21053;-75
2021/03/26 00:16:57;;;;;;;34.27;20.82;;;;;;;1.10;54.06;100409.57;1802503;78;21013;-75
2021/03/26 00:19:25;;;;;;;31.65;19.17;;;;;;;1.10;54.08;100408.28;1817025;78;21053;-75
2021/03/26 00:21:57;;;;;;;30.10;18.92;;;;;;;1.09;54.17;100413.84;1802225;78;21048;-76
2021/03/26 00:24:26;;;;;;;32.65;18.57;;;;;;;1.07;54.23;100410.45;1812762;78;21147;-75
2021/03/26 00:26:55;;;;;;;30.97;18.75;;;;;;;1.06;54.36;100409.19;1747810;80;20954;-76
2021/03/26 00:29:23;;;;;;;34.50;19.50;;;;;;;1.05;54.45;100412.62;1744289;81;21251;-75
2021/03/26 00:31:51;;;;;;;33.67;18.48;;;;;;;1.04;54.62;100408.36;1738908;80;21504;-77
2021/03/26 00:34:20;;;;;;;38.42;18.98;;;;;;;1.01;54.74;100406.67;1745838;80;21140;-76
2021/03/26 00:36:48;;;;;;;31.10;18.82;;;;;;;0.99;54.89;100409.25;1814026;78;21005;-76
2021/03/26 00:39:17;;;;;;;28.85;18.12;;;;;;;0.98;55.00;100408.84;1731567;81;21493;-77
2021/03/26 00:41:46;;;;;;;28.77;18.40;;;;;;;0.96;55.17;100418.69;1755448;81;21657;-76
2021/03/26 00:44:15;;;;;;;30.68;18.25;;;;;;;0.93;55.24;100414.88;1768803;80;20947;-77
2021/03/26 00:46:43;;;;;;;28.87;16.25;;;;;;;0.91;55.30;100418.73;1747841;81;20915;-76
2021/03/26 00:49:12;;;;;;;26.27;16.75;;;;;;;0.90;55.37;100423.45;1802885;78;21824;-76
2021/03/26 00:51:41;;;;;;;28.23;15.70;;;;;;;0.87;55.49;100417.06;1775379;79;21568;-76
2021/03/26 00:54:15;;;;;;;25.45;15.35;;;;;;;0.85;55.58;100416.67;1836468;77;21241;-76
2021/03/26 00:56:41;;;;;;;29.27;15.88;;;;;;;0.82;55.53;100416.70;1827695;77;21001;-76
2021/03/26 00:59:11;;;;;;;23.30;13.68;;;;;;;0.81;55.46;100418.41;1794532;77;21566;-76
2021/03/26 01:01:40;;;;;;;23.15;14.87;;;;;;;0.80;55.45;100421.02;1830248;77;21008;-76
2021/03/26 01:04:09;;;;;;;26.42;14.58;;;;;;;0.81;55.52;100420.97;1840969;77;20950;-76
2021/03/26 01:06:39;;;;;;;29.20;14.83;;;;;;;0.81;55.56;100419.69;1777221;79;21602;-76
2021/03/26 01:09:08;;;;;;;20.85;13.80;;;;;;;0.80;55.61;100419.73;1840444;77;21538;-75
2021/03/26 01:11:39;;;;;;;24.75;15.43;;;;;;;0.81;55.66;100422.69;1829800;78;21593;-75
2021/03/26 01:14:19;;;;;;;23.27;14.68;;;;;;;0.81;55.77;100425.25;1825728;78;20929;-75
2021/03/26 01:16:48;;;;;;;25.12;14.98;;;;;;;0.79;55.89;100423.17;1829873;78;20984;-76
2021/03/26 01:19:18;;;;;;;25.85;15.00;;;;;;;0.77;56.02;100430.88;1829901;78;21231;-75
2021/03/26 01:21:47;;;;;;;22.40;13.78;;;;;;;0.75;56.12;100426.19;1829726;78;20941;-75
2021/03/26 01:24:17;;;;;;;23.42;14.03;;;;;;;0.74;56.18;100424.48;1829802;78;21679;-75
2021/03/26 01:26:47;;;;;;;22.87;14.00;;;;;;;0.73;56.22;100422.80;1829622;78;20981;-75
2021/03/26 01:29:17;;;;;;;24.32;13.60;;;;;;;0.72;56.27;100425.37;1812014;78;21008;-75
2021/03/26 01:31:48;;;;;;;22.30;13.62;;;;;;;0.72;56.38;100426.65;1829429;78;21190;-75
2021/03/26 01:34:16;;;;;;;22.77;13.65;;;;;;;0.71;56.40;100433.92;1799709;78;21055;-75
2021/03/26 01:36:47;;;;;;;23.40;13.85;;;;;;;0.70;56.41;100433.07;1829649;78;21570;-75
2021/03/26 01:39:17;;;;;;;24.07;14.35;;;;;;;0.69;56.42;100428.80;1829733;78;21043;-75
2021/03/26 01:41:47;;;;;;;25.10;14.65;;;;;;;0.68;56.48;100430.95;1800681;78;20992;-75
2021/03/26 01:44:22;;;;;;;25.97;14.78;;;;;;;0.66;56.61;100437.37;1796046;79;21291;-75
2021/03/26 01:46:50;;;;;;;28.95;15.03;;;;;;;0.62;56.80;100433.56;1763151;79;20941;-74
2021/03/26 01:49:21;;;;;;;26.73;15.30;;;;;;;0.59;56.96;100435.73;1778332;79;20879;-75
2021/03/26 01:51:52;;;;;;;23.90;14.43;;;;;;;0.56;57.17;100441.31;1787706;79;20989;-75
2021/03/26 01:54:21;;;;;;;27.17;14.70;;;;;;;0.52;57.30;100437.92;1790207;79;21476;-75
2021/03/26 01:56:53;;;;;;;23.47;14.15;;;;;;;0.47;57.43;100434.98;1788530;79;20926;-75
2021/03/26 01:59:28;;;;;;;23.85;13.85;;;;;;;0.42;57.62;100437.58;1788601;79;21674;-76
2021/03/26 02:02:08;;;;;;;23.45;13.70;;;;;;;0.38;57.73;100437.64;1789618;79;21013;-77
2021/03/26 02:04:47;;;;;;;23.20;13.18;;;;;;;0.35;57.85;100433.39;1783891;79;20982;-76
2021/03/26 02:07:33;;;;;;;20.55;12.53;;;;;;;0.34;57.92;100431.69;1788614;79;20930;-77
2021/03/26 02:10:03;;;;;;;17.55;11.68;;;;;;;0.33;58.15;100438.95;1789945;79;21026;-75
2021/03/26 02:12:33;;;;;;;20.15;12.18;;;;;;;0.32;58.26;100433.41;1694085;82;20974;-76
2021/03/26 02:15:10;;;;;;;20.80;11.90;;;;;;;0.32;58.33;100438.54;1716797;82;20998;-75
2021/03/26 02:17:40;;;;;;;18.40;12.10;;;;;;;0.32;58.44;100440.67;1718539;82;21062;-77
2021/03/26 02:20:30;;;;;;;18.23;11.88;;;;;;;0.32;58.59;100447.50;1719154;82;21006;-75
2021/03/26 02:23:15;;;;;;;20.05;12.03;;;;;;;0.35;58.81;100447.91;1862547;76;28573;-75
2021/03/26 02:25:50;;;;;;;20.72;11.25;;;;;;;0.29;58.95;100451.37;1839366;77;21024;-76
2021/03/26 02:28:18;;;;;;;17.60;10.95;;;;;;;0.24;59.08;100443.72;1839522;77;21103;-76
2021/03/26 02:30:55;;;;;;;18.23;10.82;;;;;;;0.22;59.25;100449.71;1841395;77;21008;-75
2021/03/26 02:33:24;;;;;;;16.17;10.82;;;;;;;0.17;59.36;100452.73;1844556;77;20958;-76
2021/03/26 02:36:16;;;;;;;21.50;11.18;;;;;;;0.13;59.47;100449.34;1841201;77;21471;-75
2021/03/26 02:38:59;;;;;;;17.87;11.03;;;;;;;0.10;59.51;100457.04;1829713;77;21622;-76
2021/03/26 02:41:42;;;;;;;14.38;9.70;;;;;;;0.09;59.53;100451.92;1765272;79;21301;-76
2021/03/26 02:44:36;;;;;;;15.28;12.05;;;;;;;0.08;59.52;100457.48;1765124;80;21045;-76
2021/03/26 02:47:34;;;;;;;18.15;11.80;;;;;;;0.08;59.52;100465.16;1766653;80;20978;-77
2021/03/26 02:50:45;;;;;;;18.42;11.68;;;;;;;0.07;59.48;100460.05;1770234;79;20973;-75
2021/03/26 02:53:20;;;;;;;19.32;10.13;;;;;;;0.08;59.42;100460.47;1766605;80;20981;-75
2021/03/26 02:56:00;;;;;;;14.35;9.73;;;;;;;0.09;59.32;100465.58;1795095;78;21146;-75
2021/03/26 02:58:40;;;;;;;15.35;10.80;;;;;;;0.09;59.35;100461.73;1814812;79;21029;-75
2021/03/26 03:01:29;;;;;;;15.93;11.15;;;;;;;0.08;59.39;100455.34;1780021;80;21635;-77
2021/03/26 03:04:03;;;;;;;18.37;10.80;;;;;;;0.10;59.45;100461.31;1809360;79;20891;-77
2021/03/26 03:06:43;;;;;;;17.65;11.25;;;;;;;0.09;59.48;100465.58;1780585;80;21049;-76
2021/03/26 03:09:21;;;;;;;19.55;11.97;;;;;;;0.08;59.61;100467.72;1814022;79;21175;-77
2021/03/26 03:12:11;;;;;;;18.82;12.05;;;;;;;0.07;59.75;100465.17;1780856;80;21049;-77
2021/03/26 03:15:09;;;;;;;17.57;11.38;;;;;;;0.07;59.88;100469.01;1801473;79;21562;-77
2021/03/26 03:18:02;;;;;;;;;;;;;;;0.05;60.00;100462.62;1783816;80;21327;-76
2021/03/26 03:20:48;;;;;;;21.23;12.05;;;;;;;0.04;60.09;100469.02;1782843;80;20448;-75
2021/03/26 03:23:32;;;;;;;21.68;12.07;;;;;;;-0.03;60.26;100463.97;1815182;79;21829;-75
2021/03/26 03:26:20;;;;;;;20.62;10.90;;;;;;;-0.06;60.48;100465.27;1780080;80;21049;-75
2021/03/26 03:29:07;;;;;;;18.48;10.50;;;;;;;-0.09;60.63;100461.88;1815263;79;20946;-75
2021/03/26 03:31:46;;;;;;;15.20;9.78;;;;;;;-0.12;60.79;100461.89;1751756;79;21484;-75
2021/03/26 03:34:36;;;;;;;16.67;11.00;;;;;;;-0.16;61.06;100467.45;1727014;79;20954;-75
2021/03/26 03:37:26;;;;;;;16.67;9.98;;;;;;;-0.17;61.09;100472.16;1814702;79;21333;-74
2021/03/26 03:40:05;;;;;;;14.70;9.83;;;;;;;-0.18;61.19;100469.17;1782522;80;20959;-75
2021/03/26 03:42:55;;;;;;;15.78;10.58;;;;;;;-0.18;61.18;100470.87;1782576;80;21013;-75
2021/03/26 03:45:44;;;;;;;17.90;10.95;;;;;;;-0.20;61.17;100470.89;1814646;79;20891;-74
2021/03/26 03:48:24;;;;;;;21.95;12.43;;;;;;;-0.20;61.22;100475.16;1776302;80;20942;-74
2021/03/26 03:51:07;;;;;;;22.27;12.47;;;;;;;-0.18;61.32;100481.12;1814667;79;21191;-77
2021/03/26 03:54:00;;;;;;;22.10;12.10;;;;;;;-0.17;61.33;100478.98;1781114;80;20965;-78
2021/03/26 03:56:59;;;;;;;20.17;12.07;;;;;;;-0.15;61.43;100477.27;1814784;79;21094;-78
2021/03/26 03:59:42;;;;;;;18.15;11.03;;;;;;;-0.13;61.33;100484.51;1781014;80;20930;-77
2021/03/26 04:02:32;;;;;;;16.12;10.88;;;;;;;-0.11;61.23;100478.52;1813057;79;21017;-74
2021/03/26 04:05:07;;;;;;;19.55;11.10;;;;;;;-0.07;61.18;100482.77;1780884;80;21153;-74
2021/03/26 04:08:01;;;;;;;20.05;12.15;;;;;;;-0.03;61.17;100487.02;1814578;79;20957;-74
2021/03/26 04:10:30;;;;;;;18.07;11.05;;;;;;;0.02;61.17;100484.39;1780918;80;20954;-74
2021/03/26 04:13:05;;;;;;;19.82;10.15;;;;;;;0.06;60.99;100483.52;1782130;79;21052;-74
2021/03/26 04:15:37;;;;;;;15.95;9.78;;;;;;;0.09;61.04;100489.91;1750064;80;21014;-74
2021/03/26 04:18:25;;;;;;;18.85;11.40;;;;;;;0.14;60.98;100490.73;1814537;79;21372;-74
2021/03/26 04:21:07;;;;;;;16.73;10.45;;;;;;;0.18;60.87;100486.02;1775921;80;20970;-74
2021/03/26 04:23:41;;;;;;;25.02;14.05;;;;;;;0.23;60.74;100498.36;1802119;79;20946;-74
2021/03/26 04:26:39;;;;;;;29.82;16.23;;;;;;;0.29;60.66;100498.31;1769516;81;20997;-74
2021/03/26 04:29:49;;;;;;;27.37;17.37;;;;;;;0.36;60.53;100497.85;1742758;79;25187;-74
2021/03/26 04:32:22;;;;;;;34.53;19.73;;;;;;;0.47;60.47;100507.56;1770197;81;21400;-74
2021/03/26 04:34:52;;;;;;;31.50;18.70;;;;;;;0.62;60.36;100506.60;1779329;79;20974;-73
2021/03/26 04:38:02;;;;;;;37.70;20.20;;;;;;;0.82;60.27;100508.98;1770233;81;21480;-74
2021/03/26 04:40:35;;;;;;;26.42;15.68;;;;;;;1.11;60.02;100504.44;1803448;79;21029;-73
2021/03/26 04:43:24;;;;;;;22.87;13.48;;;;;;;1.55;59.23;100505.67;1770170;81;21025;-74
2021/03/26 04:46:19;;;;;;;25.80;13.10;;;;;;;1.96;58.59;100509.84;1803550;79;22502;-74
2021/03/26 04:49:31;;;;;;;25.72;13.90;;;;;;;2.42;57.63;100511.72;1786074;79;20974;-75
2021/03/26 04:52:09;;;;;;;25.77;14.78;;;;;;;2.92;56.59;100518.62;1803534;79;21424;-76
2021/03/26 04:54:47;;;;;;;22.62;13.08;;;;;;;3.35;55.02;100516.55;1782556;79;21018;-75
2021/03/26 04:57:47;;;;;;;19.27;11.97;;;;;;;3.64;53.90;100517.26;1747509;81;21433;-74
2021/03/26 05:00:29;;;;;;;17.82;10.82;;;;;;;3.92;53.28;100514.55;1741345;80;21420;-74
2021/03/26 05:03:22;;;;;;;15.58;10.40;;;;;;;4.24;52.80;100510.41;1763859;80;20926;-74
2021/03/26 05:05:56;;;;;;;19.37;12.53;;;;;;;4.58;51.79;100517.75;1767746;80;20990;-74
2021/03/26 05:08:27;;;;;;;25.62;14.45;;;;;;;4.92;51.04;100515.19;1765889;80;21626;-75
2021/03/26 05:11:12;;;;;;;16.10;11.65;;;;;;;5.21;50.37;100513.12;1682039;84;21033;-74
2021/03/26 05:13:52;;;;;;;16.25;11.63;;;;;;;5.49;49.70;100517.56;1772286;77;21642;-74
2021/03/26 05:16:38;;;;;;;19.87;13.15;;;;;;;5.72;49.15;100512.58;1825322;77;20963;-74
2021/03/26 05:19:56;;;;;;;14.87;10.48;;;;;;;5.92;48.73;100511.61;1815753;78;21529;-76
2021/03/26 05:22:30;;;;;;;15.88;10.85;;;;;;;6.17;48.25;100516.03;1815701;79;20975;-78
2021/03/26 05:25:32;;;;;;;17.17;12.85;;;;;;;6.44;47.95;100515.61;1815942;77;20951;-78
2021/03/26 05:28:12;;;;;;;14.50;10.35;;;;;;;6.69;46.93;100523.85;1776629;79;22236;-74
2021/03/26 05:30:42;;;;;;;18.27;12.73;;;;;;;6.83;46.16;100529.00;1776071;79;21028;-74
2021/03/26 05:33:39;;;;;;;13.25;9.45;;;;;;;6.89;45.44;100527.52;1771109;81;21027;-73
2021/03/26 05:36:22;;;;;;;15.05;8.80;;;;;;;6.88;45.03;100534.88;1744030;80;20895;-75
2021/03/26 05:39:15;;;;;;;16.07;8.30;;;;;;;6.87;44.82;100530.59;1678368;84;21058;-78
2021/03/26 05:42:12;;;;;;;12.70;8.53;;;;;;;6.91;44.97;100530.90;1834876;76;22716;-78
2021/03/26 05:45:24;;;;;;;10.95;8.60;;;;;;;6.87;45.14;100533.19;1698675;79;21107;-78
2021/03/26 05:48:32;;;;;;;13.38;8.05;;;;;;;6.79;45.46;100524.86;1781363;80;22221;-78
2021/03/26 05:51:25;;;;;;;15.58;8.38;;;;;;;6.74;45.86;100534.50;1779589;80;21079;-74
2021/03/26 05:54:06;;;;;;;16.07;7.87;;;;;;;6.64;46.11;100537.38;1780701;80;20971;-72
2021/03/26 05:57:00;;;;;;;15.28;8.58;;;;;;;6.54;46.52;100539.01;1796963;77;21055;-77
2021/03/26 05:59:54;;;;;;;18.00;8.00;;;;;;;6.45;47.08;100541.43;1809676;79;21483;-71
2021/03/26 06:02:45;;;;;;;12.18;7.95;;;;;;;6.39;47.75;100540.80;1808224;77;21268;-73
2021/03/26 06:06:13;;;;;;;12.95;6.95;;;;;;;6.30;48.15;100552.27;1793223;77;21380;-70
2021/03/26 06:09:40;;;;;;;9.85;6.87;;;;;;;6.23;48.63;100551.60;1806055;77;21063;-71
2021/03/26 06:12:52;;;;;;;8.40;7.03;;;;;;;6.15;49.17;100554.86;1805636;77;21072;-72
2021/03/26 06:16:13;;;;;;;13.78;8.55;;;;;;;6.13;49.68;100554.05;1815373;77;21013;-74
2021/03/26 06:19:44;;;;;;;14.78;8.30;;;;;;;6.11;50.28;100556.28;1785196;79;21258;-72
2021/03/26 06:22:40;;;;;;;25.60;14.78;;;;;;;6.09;50.59;100558.91;1741258;80;21702;-72
2021/03/26 06:25:33;;;;;;;27.87;14.75;;;;;;;6.10;50.73;100556.73;1780320;79;21001;-72
2021/03/26 06:28:17;;;;;;;26.05;14.20;;;;;;;6.15;50.77;100556.59;1800300;79;21075;-70
2021/03/26 06:31:32;;;;;;;31.05;16.62;;;;;;;6.20;51.10;100556.86;1795640;77;21024;-74
2021/03/26 06:34:40;;;;;;;22.20;12.43;;;;;;;6.25;51.22;100563.20;1726330;82;21212;-70
2021/03/26 06:37:49;;;;;;;21.77;15.32;;;;;;;6.34;51.57;100564.22;1729823;81;21075;-71
2021/03/26 06:40:24;;;;;;;19.98;13.03;;;;;;;6.46;51.72;100562.97;1743480;79;21175;-71
2021/03/26 06:43:02;;;;;;;26.27;13.15;;;;;;;6.57;51.75;100569.96;1790840;79;21076;-72
2021/03/26 06:45:52;;;;;;;73.83;35.20;;;;;;;6.64;51.91;100561.97;1786513;79;21611;-72
2021/03/26 06:48:51;;;;;;;56.48;28.90;;;;;;;6.74;51.92;100570.73;1782563;78;21602;-70
2021/03/26 06:51:44;;;;;;;33.05;16.45;;;;;;;6.80;51.92;100563.59;1783513;79;21573;-69
2021/03/26 06:54:46;;;;;;;32.25;16.97;;;;;;;6.99;51.92;100559.52;1784079;79;21017;-68
2021/03/26 06:57:53;;;;;;;26.93;16.00;;;;;;;7.26;51.58;100563.38;1779540;79;21029;-70
2021/03/26 07:00:52;;;;;;;25.57;14.87;;;;;;;7.64;50.92;100564.17;1785255;79;21049;-69
2021/03/26 07:03:52;;;;;;;21.52;12.70;;;;;;;8.08;50.01;100561.70;1751053;79;21195;-70
2021/03/26 07:06:55;;;;;;;24.67;13.15;;;;;;;8.44;49.39;100561.23;1782333;79;21088;-71
2021/03/26 07:09:50;;;;;;;19.77;10.50;;;;;;;8.76;48.38;100553.03;1784899;79;21021;-72
2021/03/26 07:12:42;;;;;;;;;;;;;;;9.03;48.06;100558.84;1798709;79;20977;-68
2021/03/26 07:15:26;;;;;;;28.90;15.75;;;;;;;9.33;47.61;100556.24;1775438;79;20145;-79
2021/03/26 07:18:33;;;;;;;31.35;15.80;;;;;;;9.60;46.50;100565.89;1733513;81;22367;-74
2021/03/26 07:21:27;;;;;;;39.63;19.85;;;;;;;9.76;46.34;100566.08;1741015;81;21067;-75
2021/03/26 07:24:13;;;;;;;24.98;12.95;;;;;;;9.94;46.05;100561.37;1746507;81;21040;-71
2021/03/26 07:27:28;;;;;;;11.08;8.30;;;;;;;10.12;45.64;100563.57;1732068;81;21029;-74
2021/03/26 07:30:45;;;;;;;20.85;12.28;;;;;;;10.28;44.93;100569.80;1734165;82;20938;-74
2021/03/26 07:33:27;;;;;;;23.85;12.55;;;;;;;10.32;44.65;100567.91;1785698;78;21653;-71
2021/03/26 07:36:11;;;;;;;22.87;12.03;;;;;;;10.34;44.97;100562.17;1786836;79;21428;-68
2021/03/26 07:39:06;;;;;;;9.85;8.08;;;;;;;10.48;44.28;100570.16;1775741;79;21061;-70
2021/03/26 07:41:52;;;;;;;10.90;6.50;;;;;;;10.56;44.21;100571.94;1713247;80;20982;-69
2021/03/26 07:45:02;;;;;;;15.03;9.45;;;;;;;10.62;44.10;100572.95;1740871;80;21630;-71
2021/03/26 07:48:11;;;;;;;14.60;9.30;;;;;;;10.63;44.03;100572.05;1734308;82;21639;-75
2021/03/26 07:51:07;;;;;;;8.90;6.70;;;;;;;10.71;43.98;100578.66;1783169;79;21053;-71
2021/03/26 07:53:58;;;;;;;25.92;11.12;;;;;;;10.68;43.75;100577.88;1692584;83;21045;-79
2021/03/26 07:57:04;;;;;;;41.98;16.85;;;;;;;10.78;44.49;100575.69;1727035;82;21110;-71
2021/03/26 08:00:04;;;;;;;49.23;23.45;;;;;;;11.03;43.45;100585.73;1781198;79;20981;-75
2021/03/26 08:02:55;;;;;;;16.95;10.03;;;;;;;11.16;43.75;100576.86;1770061;80;21216;-70
2021/03/26 08:05:50;;;;;;;13.20;7.83;;;;;;;11.32;43.28;100578.60;1723176;81;21081;-74
2021/03/26 08:08:57;;;;;;;11.10;7.37;;;;;;;11.48;42.98;100573.46;1752863;80;21588;-72
2021/03/26 08:12:10;;;;;;;12.88;8.65;;;;;;;11.59;42.33;100571.62;1730204;82;21057;-80
2021/03/26 08:15:17;;;;;;;8.93;6.08;;;;;;;11.64;42.36;100573.03;1728490;82;21163;-74
2021/03/26 08:17:58;;;;;;;7.05;6.15;;;;;;;11.74;42.11;100573.41;1790123;79;20960;-77
2021/03/26 08:20:47;;;;;;;12.68;6.40;;;;;;;11.77;42.02;100580.27;1789154;79;21005;-74
2021/03/26 08:23:50;;;;;;;12.78;6.92;;;;;;;11.78;42.35;100578.03;1773314;79;21057;-68
2021/03/26 08:26:45;;;;;;;7.33;5.33;;;;;;;11.88;42.09;100581.39;1777422;79;20998;-70
2021/03/26 08:29:37;;;;;;;6.90;5.40;;;;;;;12.02;41.71;100578.88;1716766;81;21052;-73
2021/03/26 08:32:57;;;;;;;8.88;6.15;;;;;;;12.21;41.50;100585.73;1788545;79;21061;-72
2021/03/26 08:35:58;;;;;;;8.40;6.60;;;;;;;12.26;41.07;100588.94;1777996;79;20990;-72
2021/03/26 08:39:20;;;;;;;8.93;6.12;;;;;;;12.11;41.23;100576.23;1809667;78;21626;-71
2021/03/26 08:42:02;;;;;;;8.48;6.37;;;;;;;12.01;41.64;100582.87;1743916;81;21059;-72
2021/03/26 08:44:32;;;;;;;10.23;7.17;;;;;;;11.99;41.04;100588.20;1796659;78;21068;-73
2021/03/26 08:47:05;;;;;;;12.40;7.08;;;;;;;11.78;41.46;100588.02;1805575;78;21185;-70
2021/03/26 08:50:04;;;;;;;9.30;6.33;;;;;;;11.68;41.98;100594.59;1817497;77;21027;-69
2021/03/26 08:52:55;;;;;;;6.60;5.80;;;;;;;11.68;42.08;100593.28;1810505;78;21024;-75
2021/03/26 08:55:37;;;;;;;9.18;6.60;;;;;;;11.64;41.88;100593.91;1805996;78;20965;-71
2021/03/26 08:58:49;;;;;;;12.80;6.40;;;;;;;11.59;42.66;100601.61;1810738;78;20973;-75
2021/03/26 09:01:34;;;;;;;16.07;6.40;;;;;;;11.58;42.63;100601.23;1820837;77;21306;-71
2021/03/26 09:04:37;;;;;;;6.05;4.92;;;;;;;11.55;42.34;100603.98;1813612;77;20984;-74
2021/03/26 09:07:42;;;;;;;9.40;6.05;;;;;;;11.45;42.03;100606.22;1817990;77;21017;-71
2021/03/26 09:10:34;;;;;;;9.50;5.87;;;;;;;11.34;42.19;100610.66;1821091;77;21092;-74
2021/03/26 09:13:24;;;;;;;8.43;6.53;;;;;;;11.21;42.29;100599.14;1797825;78;20990;-75
2021/03/26 09:16:12;;;;;;;8.75;6.97;;;;;;;11.11;42.59;100607.52;1813822;78;21370;-73
2021/03/26 09:19:04;;;;;;;16.12;9.95;;;;;;;10.98;42.54;100591.63;1799298;77;21074;-74
2021/03/26 09:22:20;;;;;;;17.80;8.75;;;;;;;10.94;42.76;100596.60;1798630;78;21032;-74
2021/03/26 09:25:22;;;;;;;12.82;8.43;;;;;;;10.95;43.15;100602.20;1827134;78;21082;-73
2021/03/26 09:28:05;;;;;;;8.58;5.78;;;;;;;10.92;42.44;100601.89;1821894;77;21080;-81
2021/03/26 09:30:45;;;;;;;9.30;7.03;;;;;;;10.75;42.79;100600.58;1755595;79;21140;-75
2021/03/26 09:33:15;;;;;;;9.20;7.20;;;;;;;10.64;43.50;100601.08;1802492;78;21107;-75
2021/03/26 09:35:56;;;;;;;11.75;7.60;;;;;;;10.61;43.64;100600.38;1815369;78;21646;-77
2021/03/26 09:38:41;;;;;;;10.72;6.75;;;;;;;10.60;43.85;100596.92;1815577;78;21542;-80
2021/03/26 09:41:25;;;;;;;10.75;7.17;;;;;;;10.64;44.23;100602.84;1803544;78;21084;-73
2021/03/26 09:43:58;;;;;;;19.05;9.95;;;;;;;10.72;43.52;100594.20;1811270;78;21384;-71
2021/03/26 09:46:47;;;;;;;14.58;9.28;;;;;;;10.74;43.11;100599.34;1808815;78;21637;-73
2021/03/26 09:49:52;;;;;;;8.40;6.20;;;;;;;10.66;42.54;100609.66;1810888;78;21063;-71
2021/03/26 09:52:33;;;;;;;7.72;5.90;;;;;;;10.61;42.56;100603.83;1806541;78;21546;-69
2021/03/26 09:55:11;;;;;;;7.60;6.00;;;;;;;10.55;42.45;100603.27;1798773;78;21024;-69
2021/03/26 09:58:10;;;;;;;6.55;5.30;;;;;;;10.53;42.83;100602.48;1788450;78;21201;-74
2021/03/26 10:00:54;;;;;;;10.53;6.72;;;;;;;10.52;42.57;100605.55;1814956;78;20945;-75
2021/03/26 10:03:46;;;;;;;6.72;5.65;;;;;;;10.54;42.34;100599.81;1805652;77;21020;-75
2021/03/26 10:06:41;;;;;;;16.48;10.90;;;;;;;10.63;42.69;100593.33;1828534;77;21069;-70
2021/03/26 10:09:42;;;;;;;14.83;10.68;;;;;;;10.78;43.13;100595.67;1833367;77;20981;-77
2021/03/26 10:12:17;;;;;;;29.00;18.37;;;;;;;10.91;42.89;100591.54;1809274;78;21116;-73
2021/03/26 10:15:02;;;;;;;13.60;9.20;;;;;;;11.03;43.55;100594.86;1809226;78;20945;-78
2021/03/26 10:17:55;;;;;;;12.03;7.35;;;;;;;11.17;42.71;100599.41;1809084;78;21048;-76
2021/03/26 10:20:38;;;;;;;11.50;7.17;;;;;;;11.26;42.12;100594.55;1777672;78;21830;-74
2021/03/26 10:23:46;;;;;;;12.45;7.50;;;;;;;11.40;42.77;100599.08;1807042;78;20997;-81
2021/03/26 10:26:51;;;;;;;20.23;8.13;;;;;;;11.61;41.68;100601.88;1769954;78;21099;-75
2021/03/26 10:29:30;;;;;;;7.90;5.70;;;;;;;11.71;41.08;100585.30;1811871;77;21678;-75
2021/03/26 10:32:27;;;;;;;9.28;6.58;;;;;;;11.70;41.28;100581.85;1814436;78;21474;-79
2021/03/26 10:35:04;;;;;;;7.90;5.70;;;;;;;11.65;41.64;100592.14;1785300;78;21048;-75
2021/03/26 10:37:41;;;;;;;6.17;5.55;;;;;;;11.59;41.12;100589.87;1807027;77;21542;-74
2021/03/26 10:40:47;;;;;;;12.65;8.18;;;;;;;11.54;41.57;100586.66;1801551;77;21499;-70
2021/03/26 10:43:33;;;;;;;10.88;7.55;;;;;;;11.50;42.26;100593.79;1790428;79;21057;-70
2021/03/26 10:46:14;;;;;;;14.58;9.58;;;;;;;11.47;42.34;100587.88;1774610;79;20934;-72
2021/03/26 10:48:58;;;;;;;13.70;7.72;;;;;;;11.53;42.93;100584.50;1789416;79;20895;-69
2021/03/26 10:51:39;;;;;;;6.50;5.50;;;;;;;11.67;42.62;100578.55;1780820;79;21492;-71
2021/03/26 10:54:32;;;;;;;7.80;6.05;;;;;;;11.84;42.49;100573.34;1789892;79;21809;-69
2021/03/26 10:57:37;;;;;;;6.97;6.28;;;;;;;12.06;42.13;100576.09;1792064;79;21024;-71
2021/03/26 11:00:23;;;;;;;7.25;6.30;;;;;;;12.30;41.65;100576.94;1750798;81;21243;-68
2021/03/26 11:02:57;;;;;;;11.57;7.20;;;;;;;12.46;40.90;100578.23;1742415;80;21092;-71
2021/03/26 11:05:45;;;;;;;15.72;10.45;;;;;;;12.43;40.78;100582.31;1809791;77;21042;-77
2021/03/26 11:08:53;;;;;;;10.90;8.10;;;;;;;12.31;40.45;100586.46;1775621;78;21210;-75
2021/03/26 11:11:43;;;;;;;8.00;6.33;;;;;;;12.25;40.75;100584.64;1780109;79;21094;-77
2021/03/26 11:14:31;;;;;;;14.68;8.93;;;;;;;12.23;41.11;100584.72;1789362;79;21166;-72
2021/03/26 11:17:20;;;;;;;24.98;13.20;;;;;;;12.29;40.98;100586.16;1771067;78;21017;-74
2021/03/26 11:20:26;;;;;;;13.62;8.48;;;;;;;12.33;40.77;100588.53;1787432;79;20974;-78
2021/03/26 11:23:16;;;;;;;9.88;6.58;;;;;;;12.33;40.65;100588.98;1772437;80;20990;-74
2021/03/26 11:25:56;;;;;;;9.98;6.67;;;;;;;12.34;40.83;100588.06;1775003;78;20937;-77
2021/03/26 11:28:34;;;;;;;10.50;6.58;;;;;;;12.40;41.14;100585.09;1773486;80;21399;-76
2021/03/26 11:31:37;;;;;;;12.58;6.85;;;;;;;12.48;40.51;100580.30;1773062;80;21052;-78
2021/03/26 11:34:37;;;;;;;13.60;8.28;;;;;;;12.54;40.66;100578.66;1775769;79;20998;-74
2021/03/26 11:37:23;;;;;;;30.50;20.23;;;;;;;12.50;40.40;100578.91;1781476;79;21789;-75
2021/03/26 11:40:19;;;;;;;23.05;13.60;;;;;;;12.41;40.26;100572.87;1747300;81;21075;-73
2021/03/26 11:42:54;;;;;;;9.58;7.62;;;;;;;12.29;40.64;100575.25;1726370;82;21117;-81
2021/03/26 11:45:34;;;;;;;8.50;7.03;;;;;;;12.19;40.42;100574.06;1796319;78;21045;-76
2021/03/26 11:48:40;;;;;;;19.30;10.43;;;;;;;12.06;40.61;100569.58;1721964;82;21610;-73
2021/03/26 11:51:24;;;;;;;27.15;16.35;;;;;;;11.95;40.75;100560.58;1746204;80;21376;-73
2021/03/26 11:54:14;;;;;;;25.37;14.47;;;;;;;11.81;40.89;100560.45;1721241;81;21032;-73
2021/03/26 11:57:04;;;;;;;22.37;12.50;;;;;;;11.72;41.00;100560.90;1728836;80;21013;-76
2021/03/26 12:00:21;;;;;;;14.18;9.70;;;;;;;11.62;41.28;100554.02;1782432;79;21002;-78
2021/03/26 12:03:37;;;;;;;14.98;9.43;;;;;;;11.53;41.81;100549.76;1808760;77;21081;-75
2021/03/26 12:06:35;;;;;;;18.45;10.10;;;;;;;11.36;41.59;100553.22;1734751;81;21203;-68
2021/03/26 12:09:24;;;;;;;11.25;7.55;;;;;;;11.20;41.83;100559.66;1730550;79;21020;-70
2021/03/26 12:12:37;;;;;;;8.25;7.15;;;;;;;11.12;41.99;100560.98;1780000;79;21033;-70
2021/03/26 12:15:16;;;;;;;18.73;11.48;;;;;;;11.03;42.27;100551.86;1777584;79;21046;-72
2021/03/26 12:18:02;;;;;;;20.82;10.03;;;;;;;10.97;42.33;100549.55;1782460;79;21079;-72
2021/03/26 12:20:39;;;;;;;11.33;7.83;;;;;;;10.96;41.93;100540.05;1802588;79;22217;-71
2021/03/26 12:23:23;;;;;;;10.30;7.17;;;;;;;11.01;41.41;100541.97;1723056;82;21177;-75
2021/03/26 12:26:14;;;;;;;10.72;6.45;;;;;;;11.08;40.33;100539.45;1735180;82;21049;-71
2021/03/26 12:29:16;;;;;;;8.50;5.47;;;;;;;11.17;40.24;100543.36;1730639;82;21068;-75
2021/03/26 12:32:06;;;;;;;7.25;5.37;;;;;;;11.30;40.10;100536.58;1748995;80;20997;-71
2021/03/26 12:34:59;;;;;;;10.93;5.83;;;;;;;11.48;39.72;100529.13;1733384;82;21530;-71
2021/03/26 12:37:36;;;;;;;6.80;5.58;;;;;;;11.57;38.82;100540.86;1785378;79;20958;-73
2021/03/26 12:40:49;;;;;;;10.95;6.10;;;;;;;11.56;38.79;100534.80;1789287;77;20938;-69
2021/03/26 12:43:24;;;;;;;13.45;7.53;;;;;;;11.51;38.96;100533.34;1764690;79;21021;-71
2021/03/26 12:46:01;;;;;;;10.25;6.00;;;;;;;11.45;39.48;100536.27;1722789;82;21072;-73
2021/03/26 12:48:48;;;;;;;12.43;6.37;;;;;;;11.40;39.46;100531.74;1731277;82;21384;-74
2021/03/26 12:51:52;;;;;;;10.15;6.62;;;;;;;11.39;39.50;100536.12;1733520;82;21080;-74